createdAt,value
2024-01-25T00:01:27.443Z,6.98
2024-01-25T00:03:55.188Z,7.05
2024-01-25T00:06:24.233Z,7.09
2024-01-25T00:08:51.799Z,7.09
2024-01-25T00:11:19.366Z,7.04
2024-01-25T00:13:46.894Z,7.07
2024-01-25T00:16:14.599Z,7.07
2024-01-25T00:18:42.385Z,7.08
2024-01-25T00:21:09.970Z,7.01
2024-01-25T00:23:38.821Z,7.10
2024-01-25T00:26:06.412Z,7.04
2024-01-25T00:28:34.828Z,7.13
2024-01-25T00:31:02.456Z,7.04
2024-01-25T00:33:30.187Z,6.93
2024-01-25T00:35:58.327Z,7.02
2024-01-25T00:38:27.805Z,6.92
2024-01-25T00:40:57.568Z,6.99
2024-01-25T00:43:25.259Z,6.87
2024-01-25T00:45:53.921Z,6.99
2024-01-25T00:48:22.169Z,6.94
2024-01-25T00:50:50.170Z,7.11
2024-01-25T00:53:19.151Z,6.95
2024-01-25T00:55:47.178Z,6.95
2024-01-25T00:58:16.828Z,7.01
2024-01-25T01:00:45.232Z,6.87
2024-01-25T01:03:14.032Z,6.88
2024-01-25T01:05:42.109Z,6.91
2024-01-25T01:08:11.073Z,6.95
2024-01-25T01:10:38.621Z,6.94
2024-01-25T01:13:06.289Z,6.87
2024-01-25T01:15:35.172Z,6.94
2024-01-25T01:18:02.957Z,6.84
2024-01-25T01:20:30.688Z,6.82
2024-01-25T01:22:58.273Z,6.75
2024-01-25T01:25:25.876Z,6.91
2024-01-25T01:27:53.462Z,6.91
2024-01-25T01:30:21.759Z,6.84
2024-01-25T01:32:50.726Z,6.94
2024-01-25T01:35:19.239Z,6.99
2024-01-25T01:37:46.823Z,6.93
2024-01-25T01:40:14.893Z,6.93
2024-01-25T01:42:42.504Z,6.88
2024-01-25T01:45:13.717Z,6.77
2024-01-25T01:47:41.983Z,6.96
2024-01-25T01:50:11.997Z,6.93
2024-01-25T01:52:39.951Z,6.97
2024-01-25T01:55:09.292Z,6.92
2024-01-25T01:57:38.652Z,6.94
2024-01-25T02:00:13.022Z,6.93
2024-01-25T02:02:40.644Z,6.78
2024-01-25T02:05:08.541Z,6.85
2024-01-25T02:07:39.155Z,6.82
2024-01-25T02:10:07.865Z,6.85
2024-01-25T02:12:35.482Z,6.74
2024-01-25T02:15:03.105Z,6.82
2024-01-25T02:17:30.890Z,6.76
2024-01-25T02:19:58.606Z,6.90
2024-01-25T02:22:27.673Z,6.73
2024-01-25T02:24:55.352Z,6.68
2024-01-25T02:27:22.891Z,6.71
2024-01-25T02:29:50.546Z,6.74
2024-01-25T02:32:19.085Z,6.66
2024-01-25T02:34:46.841Z,6.60
2024-01-25T02:37:15.693Z,6.65
2024-01-25T02:39:44.804Z,6.59
2024-01-25T02:42:13.254Z,6.54
2024-01-25T02:44:40.769Z,6.52
2024-01-25T02:47:08.349Z,6.42
2024-01-25T02:49:36.232Z,6.40
2024-01-25T02:52:04.154Z,6.41
2024-01-25T02:54:31.733Z,6.35
2024-01-25T02:57:00.938Z,6.39
2024-01-25T02:59:28.475Z,6.42
2024-01-25T03:01:56.246Z,6.48
2024-01-25T03:04:24.020Z,6.48
2024-01-25T03:06:51.966Z,6.48
2024-01-25T03:09:19.658Z,6.49
2024-01-25T03:11:47.213Z,6.48
2024-01-25T03:14:16.072Z,6.55
2024-01-25T03:16:44.156Z,6.47
2024-01-25T03:19:12.460Z,6.46
2024-01-25T03:21:40.227Z,6.49
2024-01-25T03:24:08.273Z,6.46
2024-01-25T03:26:35.814Z,6.50
2024-01-25T03:29:03.687Z,6.40
2024-01-25T03:31:32.581Z,6.44
2024-01-25T03:34:00.442Z,6.48
2024-01-25T03:36:28.076Z,6.51
2024-01-25T03:38:55.649Z,6.50
2024-01-25T03:41:24.381Z,6.49
2024-01-25T03:43:52.899Z,6.57
2024-01-25T03:46:20.557Z,6.44
2024-01-25T03:48:49.671Z,6.49
2024-01-25T03:51:17.401Z,6.43
2024-01-25T03:53:44.936Z,6.47
2024-01-25T03:56:13.508Z,6.32
2024-01-25T03:58:41.231Z,6.44
2024-01-25T04:01:09.133Z,6.51
2024-01-25T04:03:37.503Z,6.38
2024-01-25T04:06:07.001Z,6.39
2024-01-25T04:08:34.580Z,6.42
2024-01-25T04:11:02.121Z,6.39
2024-01-25T04:13:29.744Z,6.39
2024-01-25T04:15:57.558Z,6.50
2024-01-25T04:21:10.577Z,6.26
2024-01-25T04:23:38.162Z,6.29
2024-01-25T04:26:05.870Z,6.47
2024-01-25T04:28:33.445Z,6.33
2024-01-25T04:31:01.051Z,6.28
2024-01-25T04:33:28.732Z,6.29
2024-01-25T04:35:56.943Z,6.41
2024-01-25T04:38:25.813Z,6.41
2024-01-25T04:40:53.349Z,6.25
2024-01-25T04:43:20.917Z,6.22
2024-01-25T04:45:48.936Z,6.28
2024-01-25T04:48:16.950Z,6.23
2024-01-25T04:50:44.594Z,6.26
2024-01-25T04:53:12.499Z,6.20
2024-01-25T04:55:41.317Z,6.11
2024-01-25T04:58:08.930Z,6.22
2024-01-25T05:00:38.026Z,6.41
2024-01-25T05:03:06.417Z,6.16
2024-01-25T05:05:34.008Z,6.16
2024-01-25T05:08:01.650Z,6.23
2024-01-25T05:10:29.266Z,6.27
2024-01-25T05:12:58.168Z,6.29
2024-01-25T05:15:25.783Z,6.22
2024-01-25T05:17:53.423Z,6.23
2024-01-25T05:20:21.379Z,6.29
2024-01-25T05:22:49.136Z,6.17
2024-01-25T05:25:16.848Z,6.14
2024-01-25T05:27:44.445Z,6.11
2024-01-25T05:30:14.280Z,6.17
2024-01-25T05:32:41.882Z,6.17
2024-01-25T05:35:10.584Z,6.19
2024-01-25T05:37:38.329Z,6.08
2024-01-25T05:40:07.077Z,6.19
2024-01-25T05:42:34.731Z,6.09
2024-01-25T05:45:02.411Z,6.26
2024-01-25T05:47:31.765Z,6.27
2024-01-25T05:49:59.800Z,6.22
2024-01-25T05:52:27.818Z,6.25
2024-01-25T05:54:55.508Z,6.19
2024-01-25T05:57:23.072Z,6.10
2024-01-25T05:59:50.670Z,6.24
2024-01-25T06:02:18.591Z,6.14
2024-01-25T06:04:47.836Z,6.23
2024-01-25T06:07:15.697Z,5.97
2024-01-25T06:09:43.295Z,6.19
2024-01-25T06:12:11.396Z,6.14
2024-01-25T06:14:39.069Z,6.23
2024-01-25T06:17:06.683Z,6.03
2024-01-25T06:19:35.483Z,6.11
2024-01-25T06:22:04.856Z,6.02
2024-01-25T06:24:32.566Z,6.12
2024-01-25T06:27:00.161Z,6.13
2024-01-25T06:29:27.821Z,6.02
2024-01-25T06:31:55.368Z,6.17
2024-01-25T06:34:23.119Z,6.06
2024-01-25T06:36:51.042Z,6.05
2024-01-25T06:39:19.946Z,5.97
2024-01-25T06:41:47.758Z,6.01
2024-01-25T06:44:15.403Z,6.01
2024-01-25T06:46:42.938Z,6.05
2024-01-25T06:49:10.730Z,6.14
2024-01-25T06:51:38.387Z,6.12
2024-01-25T06:54:06.083Z,6.00
2024-01-25T06:56:35.944Z,6.04
2024-01-25T06:59:03.499Z,6.02
2024-01-25T07:01:31.896Z,5.85
2024-01-25T07:04:00.773Z,5.97
2024-01-25T07:06:29.735Z,5.91
2024-01-25T07:08:57.573Z,5.99
2024-01-25T07:11:25.886Z,5.77
2024-01-25T07:13:54.812Z,5.96
2024-01-25T07:16:23.056Z,5.93
2024-01-25T07:18:50.788Z,6.07
2024-01-25T07:21:19.464Z,5.95
2024-01-25T07:23:46.983Z,5.96
2024-01-25T07:26:18.875Z,5.94
2024-01-25T07:28:47.256Z,5.92
2024-01-25T07:31:16.312Z,5.94
2024-01-25T07:33:44.099Z,5.94
2024-01-25T07:36:11.813Z,5.82
2024-01-25T07:38:39.321Z,6.10
2024-01-25T07:41:06.939Z,5.96
2024-01-25T07:43:34.552Z,5.95
2024-01-25T07:46:02.212Z,6.14
2024-01-25T07:48:32.177Z,6.09
2024-01-25T07:50:59.875Z,6.01
2024-01-25T07:53:27.574Z,6.14
2024-01-25T07:55:55.575Z,5.94
2024-01-25T07:58:23.397Z,6.05
2024-01-25T08:00:52.331Z,5.78
2024-01-25T08:03:20.026Z,6.10
2024-01-25T08:05:51.591Z,5.85
2024-01-25T08:08:19.504Z,6.09
2024-01-25T08:10:48.091Z,5.94
2024-01-25T08:13:15.801Z,5.87
2024-01-25T08:15:43.416Z,5.99
2024-01-25T08:31:42.310Z,6.11
2024-01-25T08:34:10.103Z,5.90
2024-01-25T08:36:37.895Z,5.75
2024-01-25T08:39:06.533Z,5.90
2024-01-25T08:41:34.067Z,6.08
2024-01-25T08:44:01.618Z,5.98
2024-01-25T08:46:29.697Z,5.75
2024-01-25T08:48:58.925Z,6.01
2024-01-25T08:51:26.670Z,5.93
2024-01-25T08:53:54.216Z,5.98
2024-01-25T08:56:21.767Z,5.88
2024-01-25T08:58:50.771Z,6.44
2024-01-25T09:01:18.442Z,5.78
2024-01-25T09:03:46.132Z,5.91
2024-01-25T09:06:16.577Z,5.91
2024-01-25T09:08:44.269Z,6.02
2024-01-25T09:11:11.854Z,6.02
2024-01-25T09:13:45.796Z,6.13
2024-01-25T09:16:14.627Z,6.06
2024-01-25T09:18:42.695Z,6.17
2024-01-25T09:21:10.501Z,6.14
2024-01-25T09:23:39.394Z,5.93
2024-01-25T09:26:07.007Z,6.02
2024-01-25T09:28:34.744Z,6.08
2024-01-25T09:31:03.852Z,5.94
2024-01-25T09:33:32.742Z,5.88
2024-01-25T09:36:01.012Z,5.90
2024-01-25T09:38:28.713Z,6.42
2024-01-25T09:40:57.949Z,5.93
2024-01-25T09:43:25.678Z,6.14
2024-01-25T09:45:56.093Z,6.19
2024-01-25T09:48:24.337Z,6.13
2024-01-25T09:50:52.045Z,6.42
2024-01-25T09:53:23.960Z,6.13
2024-01-25T09:56:05.738Z,6.50
2024-01-25T09:58:39.438Z,6.46
2024-01-25T10:01:11.117Z,6.30
2024-01-25T10:03:41.412Z,6.52
2024-01-25T10:06:09.743Z,6.67
2024-01-25T10:08:38.060Z,6.81
2024-01-25T10:11:07.508Z,6.50
2024-01-25T10:13:35.279Z,6.78
2024-01-25T10:16:03.011Z,6.53
2024-01-25T10:18:31.454Z,6.85
2024-01-25T10:21:01.748Z,6.71
2024-01-25T10:23:30.582Z,6.78
2024-01-25T10:25:58.796Z,6.34
2024-01-25T10:28:30.041Z,6.92
2024-01-25T10:30:59.180Z,6.56
2024-01-25T10:33:29.241Z,6.76
2024-01-25T10:36:02.889Z,6.79
2024-01-25T10:38:32.743Z,6.81
2024-01-25T10:41:02.521Z,6.44
2024-01-25T10:43:32.593Z,6.41
2024-01-25T10:46:04.655Z,6.36
2024-01-25T10:48:33.298Z,6.92
2024-01-25T10:51:04.287Z,6.66
2024-01-25T10:53:35.563Z,6.95
2024-01-25T10:56:04.350Z,6.82
2024-01-25T10:58:38.374Z,6.80
2024-01-25T11:01:14.959Z,6.41
2024-01-25T11:03:44.263Z,6.63
2024-01-25T11:06:13.694Z,6.97
2024-01-25T11:08:42.154Z,6.73
2024-01-25T11:11:11.482Z,7.11
2024-01-25T11:13:43.189Z,6.78
2024-01-25T11:16:17.633Z,7.18
2024-01-25T11:21:31.340Z,6.55
2024-01-25T11:24:03.807Z,7.12
2024-01-25T11:26:31.823Z,6.80
2024-01-25T11:29:01.226Z,6.97
2024-01-25T11:31:29.903Z,6.95
2024-01-25T11:34:00.071Z,6.97
2024-01-25T11:36:27.988Z,6.79
2024-01-25T11:38:55.581Z,7.10
2024-01-25T11:41:23.199Z,7.27
2024-01-25T11:43:51.122Z,7.52
2024-01-25T11:46:20.616Z,7.06
2024-01-25T11:48:48.375Z,7.32
2024-01-25T11:51:16.336Z,7.08
2024-01-25T11:53:43.910Z,6.42
2024-01-25T11:56:17.841Z,7.64
2024-01-25T11:58:47.658Z,7.30
2024-01-25T12:01:16.493Z,7.00
2024-01-25T12:03:45.532Z,7.11
2024-01-25T12:06:14.721Z,6.80
2024-01-25T12:08:42.671Z,7.36
2024-01-25T12:11:11.687Z,7.37
2024-01-25T12:13:41.723Z,7.28
2024-01-25T12:16:11.027Z,7.83
2024-01-25T12:18:39.579Z,7.73
2024-01-25T12:21:08.688Z,7.13
2024-01-25T12:23:38.688Z,7.62
2024-01-25T12:26:08.075Z,7.55
2024-01-25T12:28:36.293Z,7.60
2024-01-25T12:31:05.746Z,7.65
2024-01-25T12:33:34.628Z,7.29
2024-01-25T12:36:05.903Z,7.21
2024-01-25T12:38:36.410Z,7.33
2024-01-25T12:41:04.838Z,7.60
2024-01-25T12:43:33.669Z,7.58
2024-01-25T12:46:09.421Z,7.37
2024-01-25T12:48:48.025Z,7.70
2024-01-25T12:51:16.384Z,7.07
2024-01-25T12:53:45.706Z,7.89
2024-01-25T12:56:13.388Z,7.24
2024-01-25T12:58:41.106Z,7.43
2024-01-25T13:01:08.942Z,7.30
2024-01-25T13:03:36.659Z,7.99
2024-01-25T13:06:06.467Z,7.91
2024-01-25T13:08:34.498Z,8.09
2024-01-25T13:11:03.368Z,8.03
2024-01-25T13:13:30.975Z,8.22
2024-01-25T13:16:00.429Z,8.37
2024-01-25T13:18:29.727Z,8.18
2024-01-25T13:20:57.356Z,8.18
2024-01-25T13:23:24.890Z,8.25
2024-01-25T13:25:52.434Z,8.36
2024-01-25T13:28:22.822Z,8.27
2024-01-25T13:30:53.211Z,8.36
2024-01-25T13:33:20.966Z,8.22
2024-01-25T13:35:48.620Z,8.57
2024-01-25T13:38:17.501Z,8.72
2024-01-25T13:40:45.321Z,8.50
2024-01-25T13:43:13.433Z,8.51
2024-01-25T13:45:42.308Z,8.67
2024-01-25T13:48:09.927Z,8.58
2024-01-25T13:50:37.461Z,8.38
2024-01-25T13:53:05.326Z,8.24
2024-01-25T13:55:33.043Z,8.03
2024-01-25T13:58:01.504Z,8.45
2024-01-25T14:00:29.973Z,8.62
2024-01-25T14:02:58.981Z,7.32
2024-01-25T14:05:26.811Z,8.39
2024-01-25T14:07:54.881Z,7.76
2024-01-25T14:10:22.597Z,8.30
2024-01-25T14:12:50.623Z,8.45
2024-01-25T14:15:18.263Z,8.19
2024-01-25T14:17:45.957Z,8.24
2024-01-25T14:20:15.092Z,8.06
2024-01-25T14:22:42.719Z,7.43
2024-01-25T14:25:10.658Z,7.68
2024-01-25T14:27:38.389Z,7.16
2024-01-25T14:30:08.072Z,7.02
2024-01-25T14:32:35.838Z,7.14
2024-01-25T14:35:05.553Z,6.85
2024-01-25T14:37:34.373Z,6.81
2024-01-25T14:40:14.981Z,6.65
2024-01-25T14:42:49.563Z,6.68
2024-01-25T14:45:17.453Z,6.56
2024-01-25T14:47:45.100Z,6.57
2024-01-25T14:50:12.782Z,6.58
2024-01-25T14:52:41.668Z,6.62
2024-01-25T14:55:10.219Z,6.49
2024-01-25T14:57:38.090Z,6.69
2024-01-25T15:00:07.340Z,7.22
2024-01-25T15:02:35.295Z,6.36
2024-01-25T15:05:02.899Z,6.62
2024-01-25T15:07:30.591Z,6.57
2024-01-25T15:10:02.142Z,6.21
2024-01-25T15:12:30.220Z,6.54
2024-01-25T15:14:57.791Z,6.86
2024-01-25T15:17:25.340Z,6.41
2024-01-25T15:19:52.982Z,6.26
2024-01-25T15:22:21.664Z,7.11
2024-01-25T15:24:49.240Z,7.00
2024-01-25T15:27:18.224Z,6.45
2024-01-25T15:29:45.761Z,7.09
2024-01-25T15:32:13.291Z,6.48
2024-01-25T15:34:41.816Z,6.69
2024-01-25T15:37:09.495Z,6.61
2024-01-25T15:39:37.081Z,6.47
2024-01-25T15:42:04.921Z,7.20
2024-01-25T15:44:33.848Z,7.49
2024-01-25T15:47:01.660Z,7.37
2024-01-25T15:49:29.219Z,7.54
2024-01-25T15:51:56.799Z,7.52
2024-01-25T15:54:24.414Z,7.39
2024-01-25T15:56:52.794Z,7.34
2024-01-25T15:59:20.376Z,7.23
2024-01-25T16:01:49.255Z,7.51
2024-01-25T16:04:16.904Z,7.38
2024-01-25T16:06:44.497Z,7.24
2024-01-25T16:09:12.254Z,6.95
2024-01-25T16:11:40.085Z,6.85
2024-01-25T16:14:07.655Z,7.25
2024-01-25T16:16:35.217Z,7.20
2024-01-25T16:19:05.513Z,7.37
2024-01-25T16:21:33.714Z,7.45
2024-01-25T16:24:01.420Z,7.37
2024-01-25T16:26:29.568Z,7.29
2024-01-25T16:28:57.146Z,6.82
2024-01-25T16:31:24.721Z,6.94
2024-01-25T16:33:52.468Z,7.17
2024-01-25T16:36:21.414Z,6.93
2024-01-25T16:38:48.980Z,6.76
2024-01-25T16:41:16.539Z,6.87
2024-01-25T16:43:44.206Z,6.82
2024-01-25T16:46:11.841Z,7.10
2024-01-25T16:48:39.554Z,6.72
2024-01-25T16:51:07.329Z,7.02
2024-01-25T16:53:36.353Z,6.61
2024-01-25T16:56:04.117Z,6.74
2024-01-25T16:58:31.664Z,7.03
2024-01-25T17:00:59.840Z,6.55
2024-01-25T17:03:27.598Z,6.97
2024-01-25T17:05:55.227Z,6.79
2024-01-25T17:08:22.953Z,6.72
2024-01-25T17:10:52.208Z,6.23
2024-01-25T17:13:20.249Z,6.56
2024-01-25T17:15:47.912Z,6.77
2024-01-25T17:18:15.619Z,6.29
2024-01-25T17:20:43.262Z,6.40
2024-01-25T17:23:10.788Z,5.78
2024-01-25T17:25:38.328Z,6.08
2024-01-25T17:28:07.532Z,6.32
2024-01-25T17:30:35.679Z,5.94
2024-01-25T17:33:03.428Z,6.23
2024-01-25T17:35:31.012Z,6.41
2024-01-25T17:37:58.660Z,6.34
2024-01-25T17:40:26.175Z,6.44
2024-01-25T17:42:53.859Z,6.39
2024-01-25T17:45:22.831Z,6.33
2024-01-25T17:47:51.963Z,6.20
2024-01-25T17:50:19.754Z,5.54
2024-01-25T17:52:47.309Z,5.54
2024-01-25T17:55:14.844Z,5.86
2024-01-25T17:57:43.964Z,5.68
2024-01-25T18:00:12.696Z,5.60
2024-01-25T18:02:41.636Z,5.13
2024-01-25T18:05:09.984Z,5.11
2024-01-25T18:07:38.036Z,5.08
2024-01-25T18:10:06.376Z,4.77
2024-01-25T18:12:33.972Z,4.72
2024-01-25T18:15:01.552Z,4.77
2024-01-25T18:17:29.164Z,4.22
2024-01-25T18:19:58.193Z,3.75
2024-01-25T18:22:25.793Z,3.68
2024-01-25T18:24:55.319Z,3.36
2024-01-25T18:27:22.951Z,3.19
2024-01-25T18:29:50.531Z,3.25
2024-01-25T18:32:18.058Z,3.02
2024-01-25T18:34:45.867Z,2.66
2024-01-25T18:37:14.816Z,2.66
2024-01-25T18:39:42.361Z,2.63
2024-01-25T18:42:09.935Z,2.43
2024-01-25T18:44:41.294Z,2.40
2024-01-25T18:47:11.238Z,2.52
2024-01-25T18:49:38.985Z,2.27
2024-01-25T18:52:07.151Z,2.08
2024-01-25T18:54:36.793Z,2.15
2024-01-25T18:57:04.909Z,1.93
2024-01-25T18:59:32.960Z,2.03
2024-01-25T19:02:01.264Z,1.92
2024-01-25T19:04:29.765Z,2.94
2024-01-25T19:06:58.744Z,2.01
2024-01-25T19:09:29.316Z,1.68
2024-01-25T19:11:58.347Z,1.62
2024-01-25T19:14:26.045Z,1.83
2024-01-25T19:16:53.759Z,1.85
2024-01-25T19:19:21.879Z,1.68
2024-01-25T19:21:50.281Z,2.10
2024-01-25T19:24:20.369Z,1.51
2024-01-25T19:26:48.163Z,1.39
2024-01-25T19:29:17.143Z,1.25
2024-01-25T19:31:45.765Z,1.18
2024-01-25T19:34:13.389Z,1.31
2024-01-25T19:36:41.305Z,2.14
2024-01-25T19:39:08.877Z,2.04
2024-01-25T19:41:36.511Z,2.79
2024-01-25T19:44:04.082Z,2.52
2024-01-25T19:46:32.973Z,1.98
2024-01-25T19:49:00.857Z,1.31
2024-01-25T19:51:28.734Z,1.56
2024-01-25T19:53:57.039Z,1.33
2024-01-25T19:56:24.574Z,1.97
2024-01-25T19:58:54.428Z,1.03
2024-01-25T20:01:22.678Z,0.96
2024-01-25T20:03:52.489Z,0.85
2024-01-25T20:06:21.878Z,0.89
2024-01-25T20:08:50.654Z,1.01
2024-01-25T20:11:18.183Z,0.89
2024-01-25T20:13:45.772Z,0.70
2024-01-25T20:16:13.562Z,0.71
2024-01-25T20:18:41.774Z,0.84
2024-01-25T20:21:10.758Z,0.69
2024-01-25T20:23:38.326Z,0.71
2024-01-25T20:26:05.867Z,0.71
2024-01-25T20:28:33.412Z,0.64
2024-01-25T20:31:01.019Z,0.70
2024-01-25T20:33:28.760Z,0.66
2024-01-25T20:35:56.781Z,0.65
2024-01-25T20:38:25.985Z,0.91
2024-01-25T20:40:53.519Z,1.56
2024-01-25T20:43:21.116Z,0.91
2024-01-25T20:45:48.719Z,1.31
2024-01-25T20:48:16.567Z,0.63
2024-01-25T20:50:44.328Z,0.72
2024-01-25T20:53:11.919Z,0.72
2024-01-25T20:55:40.943Z,1.63
2024-01-25T20:58:08.470Z,0.83
2024-01-25T21:00:36.247Z,2.07
2024-01-25T21:03:04.470Z,2.25
2024-01-25T21:05:32.646Z,1.64
2024-01-25T21:08:00.899Z,2.05
2024-01-25T21:10:29.234Z,1.55
2024-01-25T21:12:58.829Z,1.35
2024-01-25T21:15:27.040Z,0.76
2024-01-25T21:17:54.746Z,0.68
2024-01-25T21:20:22.369Z,0.71
2024-01-25T21:22:49.986Z,0.75
2024-01-25T21:25:17.545Z,0.77
2024-01-25T21:27:45.210Z,0.80
2024-01-25T21:30:15.024Z,0.88
2024-01-25T21:32:42.896Z,0.91
2024-01-25T21:35:10.980Z,1.03
2024-01-25T21:37:38.633Z,1.10
2024-01-25T21:40:07.625Z,1.01
2024-01-25T21:42:37.948Z,1.04
2024-01-25T21:45:07.542Z,1.10
2024-01-25T21:47:37.254Z,1.17
2024-01-25T21:50:08.516Z,1.24
2024-01-25T21:52:36.418Z,1.17
2024-01-25T21:57:35.324Z,1.09
2024-01-25T22:00:03.086Z,1.11
2024-01-25T22:02:30.926Z,1.16
2024-01-25T22:05:00.064Z,1.25
2024-01-25T22:07:27.600Z,1.21
2024-01-25T22:09:55.265Z,1.44
2024-01-25T22:12:22.878Z,1.32
2024-01-25T22:14:50.392Z,1.36
2024-01-25T22:17:17.934Z,1.27
2024-01-25T22:19:45.876Z,1.35
2024-01-25T22:22:15.401Z,1.41
2024-01-25T22:24:45.503Z,1.44
2024-01-25T22:27:13.097Z,1.35
2024-01-25T22:29:40.654Z,1.44
2024-01-25T22:32:08.189Z,1.50
2024-01-25T22:34:35.882Z,1.53
2024-01-25T22:37:03.630Z,2.39
2024-01-25T22:39:32.652Z,1.94
2024-01-25T22:42:00.204Z,2.21
2024-01-25T22:44:27.774Z,2.14
2024-01-25T22:47:02.611Z,1.92
2024-01-25T22:49:33.108Z,1.86
2024-01-25T22:52:01.138Z,1.89
2024-01-25T22:54:29.099Z,1.95
2024-01-25T22:56:58.070Z,2.21
2024-01-25T22:59:25.609Z,1.95
2024-01-25T23:01:53.296Z,1.97
2024-01-25T23:04:21.348Z,1.94
2024-01-25T23:06:50.449Z,2.01
2024-01-25T23:09:19.933Z,2.19
2024-01-25T23:11:47.901Z,2.07
2024-01-25T23:14:16.887Z,2.19
2024-01-25T23:16:45.034Z,2.10
2024-01-25T23:19:13.045Z,2.17
2024-01-25T23:21:40.898Z,2.25
2024-01-25T23:24:08.746Z,2.81
2024-01-25T23:26:36.318Z,3.13
2024-01-25T23:29:03.874Z,3.39
2024-01-25T23:31:32.742Z,3.47
2024-01-25T23:34:00.481Z,3.63
2024-01-25T23:36:28.444Z,3.51
2024-01-25T23:38:56.044Z,3.55
2024-01-25T23:41:25.230Z,3.54
2024-01-25T23:43:53.409Z,3.32
2024-01-25T23:46:21.108Z,3.20
2024-01-25T23:48:50.416Z,3.22
2024-01-25T23:51:18.108Z,3.28
2024-01-25T23:53:45.945Z,3.29
2024-01-25T23:56:13.672Z,3.28
2024-01-25T23:58:41.848Z,3.30
